createdAt,value
2019-03-03T00:02:48.540Z,50.88
2019-03-03T00:08:43.410Z,50.61
2019-03-03T00:11:44.830Z,50.37
2019-03-03T00:14:15.847Z,50.37
2019-03-03T00:19:32.155Z,49.90
2019-03-03T00:22:22.367Z,50.09
2019-03-03T00:25:12.512Z,50.07
2019-03-03T00:31:39.208Z,48.95
2019-03-03T00:33:57.339Z,49.30
2019-03-03T00:37:05.923Z,49.29
2019-03-03T00:46:22.512Z,48.35
2019-03-03T00:49:53.214Z,48.12
2019-03-03T00:53:15.243Z,48.92
2019-03-03T00:59:20.889Z,49.62
2019-03-03T01:05:49.587Z,50.19
2019-03-03T01:09:03.739Z,50.77
2019-03-03T01:12:42.219Z,50.55
2019-03-03T01:15:38.408Z,50.43
2019-03-03T01:18:48.136Z,50.79
2019-03-03T01:24:33.511Z,50.94
2019-03-03T01:37:01.643Z,50.70
2019-03-03T01:39:53.327Z,50.52
2019-03-03T01:49:43.195Z,50.29
2019-03-03T01:51:54.202Z,50.48
2019-03-03T01:54:38.854Z,49.94
2019-03-03T01:57:08.201Z,49.56
2019-03-03T02:00:31.481Z,49.35
2019-03-03T02:03:23.243Z,49.35
2019-03-03T02:09:08.431Z,49.30
2019-03-03T02:15:12.560Z,49.18
2019-03-03T02:18:01.466Z,49.15
2019-03-03T02:26:32.197Z,48.67
2019-03-03T02:29:02.860Z,48.66
2019-03-03T02:35:00.328Z,47.90
2019-03-03T02:40:53.321Z,48.27
2019-03-03T02:43:56.307Z,47.79
2019-03-03T02:46:26.799Z,48.06
2019-03-03T02:49:28.349Z,47.88
2019-03-03T02:52:29.765Z,47.73
2019-03-03T02:58:41.937Z,48.49
2019-03-03T03:01:42.261Z,48.59
2019-03-03T03:04:24.204Z,49.42
2019-03-03T03:10:18.774Z,49.86
2019-03-03T03:13:42.474Z,49.86
2019-03-03T03:17:35.578Z,49.12
2019-03-03T03:19:25.354Z,49.03
2019-03-03T03:25:21.310Z,49.08
2019-03-03T03:32:05.335Z,48.99
2019-03-03T03:35:17.069Z,48.45
2019-03-03T03:38:51.211Z,48.26
2019-03-03T03:41:45.039Z,48.36
2019-03-03T03:45:07.907Z,48.44
2019-03-03T03:47:57.551Z,48.54
2019-03-03T03:51:09.685Z,48.30
2019-03-03T03:54:15.395Z,48.02
2019-03-03T03:57:37.668Z,48.45
2019-03-03T04:07:42.423Z,48.83
2019-03-03T04:13:54.333Z,49.26
2019-03-03T04:17:07.496Z,49.58
2019-03-03T04:20:20.422Z,49.65
2019-03-03T04:23:20.436Z,49.62
2019-03-03T04:26:31.857Z,50.09
2019-03-03T04:29:45.909Z,50.05
2019-03-03T04:32:26.220Z,49.76
2019-03-03T04:36:00.164Z,49.75
2019-03-03T04:38:19.343Z,49.59
2019-03-03T04:41:29.333Z,49.28
2019-03-03T04:44:19.420Z,49.26
2019-03-03T04:56:57.228Z,49.11
2019-03-03T05:00:15.922Z,48.97
2019-03-03T05:03:26.416Z,49.63
2019-03-03T05:06:39.302Z,49.67
2019-03-03T05:12:56.925Z,49.39
2019-03-03T05:19:15.434Z,49.15
2019-03-03T05:22:05.281Z,49.24
2019-03-03T05:24:55.795Z,49.54
2019-03-03T05:27:29.417Z,49.98
2019-03-03T05:33:27.636Z,49.90
2019-03-03T05:36:37.815Z,49.71
2019-03-03T05:39:11.822Z,49.13
2019-03-03T05:42:23.328Z,49.16
2019-03-03T05:44:56.288Z,49.20
2019-03-03T05:47:47.709Z,49.22
2019-03-03T05:50:21.559Z,48.88
2019-03-03T05:53:36.505Z,48.65
2019-03-03T05:56:58.822Z,48.65
2019-03-03T06:00:00.792Z,48.64
2019-03-03T06:02:53.911Z,48.81
2019-03-03T06:05:48.064Z,48.44
2019-03-03T06:08:24.221Z,48.04
2019-03-03T06:10:57.111Z,48.21
2019-03-03T06:13:51.844Z,48.42
2019-03-03T06:19:47.276Z,48.22
2019-03-03T06:25:51.525Z,47.93
2019-03-03T06:32:13.174Z,47.78
2019-03-03T06:35:05.400Z,47.85
2019-03-03T06:38:06.761Z,47.74
2019-03-03T06:43:54.139Z,49.30
2019-03-03T06:49:35.007Z,49.21
2019-03-03T06:52:24.634Z,49.71
2019-03-03T06:55:15.961Z,50.20
2019-03-03T07:00:57.893Z,49.80
2019-03-03T07:03:28.642Z,49.72
2019-03-03T07:06:18.292Z,49.54
2019-03-03T07:08:48.485Z,49.05
2019-03-03T07:11:42.106Z,48.46
2019-03-03T07:23:53.301Z,49.49
2019-03-03T07:26:24.403Z,49.38
2019-03-03T07:29:16.800Z,49.48
2019-03-03T07:31:48.113Z,49.33
2019-03-03T07:37:43.127Z,48.81
2019-03-03T07:43:26.976Z,49.17
2019-03-03T07:46:00.676Z,49.25
2019-03-03T07:48:50.211Z,49.02
2019-03-03T07:51:44.233Z,48.90
2019-03-03T07:58:06.180Z,49.66
2019-03-03T08:00:56.431Z,49.55
2019-03-03T08:04:19.121Z,49.74
2019-03-03T08:06:41.164Z,49.82
2019-03-03T08:09:58.398Z,49.64
2019-03-03T08:16:00.874Z,50.25
2019-03-03T08:22:07.752Z,51.04
2019-03-03T08:27:52.080Z,50.98
2019-03-03T08:33:59.242Z,51.55
2019-03-03T08:37:09.801Z,51.52
2019-03-03T08:40:20.252Z,51.17
2019-03-03T08:43:28.873Z,51.65
2019-03-03T08:46:38.757Z,51.31
2019-03-03T08:49:31.566Z,51.43
2019-03-03T08:55:47.982Z,50.76
2019-03-03T08:58:57.007Z,51.10
2019-03-03T09:02:05.077Z,50.21
2019-03-03T09:05:33.569Z,50.21
2019-03-03T09:08:36.316Z,50.18
2019-03-03T09:11:44.893Z,49.86
2019-03-03T09:14:53.817Z,49.58
2019-03-03T09:18:34.383Z,49.91
2019-03-03T09:20:56.047Z,49.72
2019-03-03T09:24:06.157Z,49.14
2019-03-03T09:27:06.130Z,49.29
2019-03-03T09:30:15.945Z,50.45
2019-03-03T09:33:25.964Z,51.05
2019-03-03T09:36:35.768Z,50.01
2019-03-03T09:39:27.135Z,50.98
2019-03-03T09:42:37.779Z,51.01
2019-03-03T09:45:47.853Z,50.26
2019-03-03T09:48:55.476Z,49.65
2019-03-03T09:55:13.549Z,49.19
2019-03-03T09:58:28.886Z,50.09
2019-03-03T10:01:30.255Z,48.86
2019-03-03T10:04:40.975Z,48.86
2019-03-03T10:08:03.811Z,48.87
2019-03-03T10:10:46.247Z,49.11
2019-03-03T10:13:37.135Z,48.64
2019-03-03T10:16:34.225Z,48.12
2019-03-03T10:19:46.374Z,47.76
2019-03-03T10:22:40.597Z,48.46
2019-03-03T10:25:51.292Z,48.95
2019-03-03T10:29:00.241Z,48.47
2019-03-03T10:32:31.043Z,49.11
2019-03-03T10:39:02.397Z,48.85
2019-03-03T10:42:00.510Z,48.29
2019-03-03T10:45:17.062Z,48.10
2019-03-03T10:48:18.139Z,47.73
2019-03-03T10:51:26.709Z,47.65
2019-03-03T10:54:17.683Z,47.65
2019-03-03T10:57:47.847Z,48.54
2019-03-03T11:03:58.264Z,49.87
2019-03-03T11:13:56.068Z,49.86
2019-03-03T11:19:48.939Z,49.32
2019-03-03T11:23:17.499Z,49.61
2019-03-03T11:26:26.761Z,49.36
2019-03-03T11:29:36.522Z,49.20
2019-03-03T11:32:31.964Z,49.14
2019-03-03T11:35:44.554Z,48.68
2019-03-03T11:38:47.529Z,48.11
2019-03-03T11:41:58.280Z,48.25
2019-03-03T11:45:15.178Z,47.63
2019-03-03T11:48:25.055Z,47.92
2019-03-03T11:51:28.015Z,47.49
2019-03-03T11:54:13.969Z,48.11
2019-03-03T11:57:11.454Z,48.76
2019-03-03T12:00:09.912Z,48.35
2019-03-03T12:03:12.610Z,49.59
2019-03-03T12:06:10.932Z,50.87
2019-03-03T12:09:23.767Z,51.02
2019-03-03T12:12:32.468Z,51.67
2019-03-03T12:18:52.505Z,51.51
2019-03-03T12:25:28.352Z,51.13
2019-03-03T12:31:36.802Z,50.82
2019-03-03T12:34:34.579Z,51.01
2019-03-03T12:37:38.860Z,50.97
2019-03-03T12:47:12.590Z,52.19
2019-03-03T12:50:21.980Z,52.01
2019-03-03T13:03:26.821Z,52.24
2019-03-03T13:06:30.521Z,52.07
2019-03-03T13:09:43.662Z,51.19
2019-03-03T13:12:33.943Z,51.65
2019-03-03T13:19:13.186Z,50.65
2019-03-03T13:22:48.586Z,50.42
2019-03-03T13:25:28.322Z,49.72
2019-03-03T13:28:37.966Z,48.66
2019-03-03T13:31:30.656Z,47.82
2019-03-03T13:34:39.929Z,47.65
2019-03-03T13:37:31.012Z,47.43
2019-03-03T13:40:42.688Z,46.91
2019-03-03T13:47:03.170Z,47.68
2019-03-03T13:49:37.833Z,47.98
2019-03-03T13:52:09.152Z,47.78
2019-03-03T13:54:52.522Z,47.75
2019-03-03T13:57:35.304Z,47.87
2019-03-03T14:00:44.699Z,47.68
2019-03-03T14:03:44.993Z,47.33
2019-03-03T14:06:18.991Z,47.07
2019-03-03T14:14:52.424Z,47.49
2019-03-03T14:17:26.745Z,47.20
2019-03-03T14:20:22.058Z,47.49
2019-03-03T14:22:59.440Z,46.95
2019-03-03T14:25:34.795Z,47.12
2019-03-03T14:28:07.979Z,47.43
2019-03-03T14:33:49.769Z,47.23
2019-03-03T14:43:03.795Z,47.48
2019-03-03T14:45:41.231Z,47.20
2019-03-03T14:51:38.482Z,47.34
2019-03-03T14:54:46.569Z,47.03
2019-03-03T15:00:32.031Z,46.66
2019-03-03T15:03:11.163Z,47.03
2019-03-03T15:06:23.927Z,46.61
2019-03-03T15:09:07.180Z,46.04
2019-03-03T15:14:45.927Z,45.99
2019-03-03T15:20:49.094Z,46.39
2019-03-03T15:24:15.617Z,47.76
2019-03-03T15:27:20.203Z,49.00
2019-03-03T15:30:22.218Z,49.73
2019-03-03T15:33:33.800Z,49.45
2019-03-03T15:36:28.407Z,49.77
2019-03-03T15:42:35.097Z,49.59
2019-03-03T15:45:45.722Z,49.43
2019-03-03T15:51:27.807Z,49.77
2019-03-03T15:53:59.878Z,50.07
2019-03-03T15:56:32.288Z,49.51
2019-03-03T16:02:39.122Z,48.77
2019-03-03T16:05:20.573Z,48.45
2019-03-03T16:07:54.046Z,48.18
2019-03-03T16:10:25.375Z,48.32
2019-03-03T16:13:03.953Z,47.74
2019-03-03T16:31:24.705Z,46.79
2019-03-03T16:40:19.641Z,47.15
2019-03-03T16:42:55.745Z,46.43
2019-03-03T16:46:00.299Z,45.80
2019-03-03T16:55:01.474Z,45.72
2019-03-03T17:09:18.367Z,44.10
2019-03-03T17:12:01.844Z,44.12
2019-03-03T17:18:28.782Z,43.65
2019-03-03T17:21:24.724Z,43.94
2019-03-03T17:24:02.286Z,43.83
2019-03-03T17:27:12.052Z,43.30
2019-03-03T17:29:57.089Z,44.13
2019-03-03T17:32:58.444Z,44.21
2019-03-03T17:36:08.579Z,43.75
2019-03-03T17:39:00.145Z,43.67
2019-03-03T17:42:10.749Z,44.36
2019-03-03T17:45:05.926Z,44.41
2019-03-03T17:51:55.307Z,43.88
2019-03-03T17:54:31.496Z,43.99
2019-03-03T17:57:35.527Z,44.22
2019-03-03T18:04:12.053Z,44.84
2019-03-03T18:07:26.544Z,44.53
2019-03-03T18:10:25.053Z,44.76
2019-03-03T18:17:02.844Z,44.32
2019-03-03T18:25:58.506Z,44.33
2019-03-03T18:28:49.993Z,44.35
2019-03-03T18:35:09.931Z,44.00
2019-03-03T18:40:48.626Z,43.72
2019-03-03T18:43:42.277Z,43.61
2019-03-03T18:46:22.791Z,44.13
2019-03-03T18:55:19.588Z,43.38
2019-03-03T18:58:25.403Z,43.34
2019-03-03T19:00:50.350Z,42.92
2019-03-03T19:04:01.003Z,43.28
2019-03-03T19:12:38.663Z,43.29
2019-03-03T19:15:30.000Z,43.16
2019-03-03T19:18:02.204Z,43.46
2019-03-03T19:20:58.501Z,43.43
2019-03-03T19:29:57.648Z,43.37
2019-03-03T19:35:48.234Z,43.30
2019-03-03T19:44:49.414Z,43.33
2019-03-03T20:04:31.714Z,43.90
2019-03-03T20:07:22.958Z,44.32
2019-03-03T20:17:03.273Z,43.60
2019-03-03T20:20:26.633Z,43.78
2019-03-03T20:26:30.223Z,43.86
2019-03-03T20:29:06.058Z,43.78
2019-03-03T20:32:17.527Z,43.75
2019-03-03T20:35:09.573Z,44.09
2019-03-03T20:38:25.861Z,43.71
2019-03-03T20:44:08.464Z,44.17
2019-03-03T20:47:03.179Z,43.94
2019-03-03T20:56:36.336Z,44.59
2019-03-03T20:59:05.330Z,44.60
2019-03-03T21:02:10.556Z,44.77
2019-03-03T21:08:04.949Z,44.39
2019-03-03T21:11:16.241Z,44.42
2019-03-03T21:17:42.175Z,44.00
2019-03-03T21:19:53.131Z,44.32
2019-03-03T21:22:47.546Z,44.08
2019-03-03T21:29:03.827Z,44.10
2019-03-03T21:31:28.130Z,43.85
2019-03-03T21:37:54.126Z,43.90
2019-03-03T21:40:52.373Z,43.92
2019-03-03T21:43:42.392Z,43.92
2019-03-03T21:46:32.709Z,44.25
2019-03-03T21:49:22.301Z,44.39
2019-03-03T21:52:32.124Z,44.37
2019-03-03T21:58:36.221Z,44.70
2019-03-03T22:01:25.998Z,45.10
2019-03-03T22:07:14.152Z,45.50
2019-03-03T22:10:42.978Z,45.58
2019-03-03T22:13:39.261Z,45.61
2019-03-03T22:16:30.660Z,45.46
2019-03-03T22:22:18.100Z,45.65
2019-03-03T22:31:17.805Z,46.13
2019-03-03T22:37:18.057Z,46.03
2019-03-03T22:40:19.069Z,45.81
2019-03-03T22:42:53.665Z,45.53
2019-03-03T22:45:50.075Z,45.82
2019-03-03T22:51:27.500Z,45.21
2019-03-03T22:54:13.820Z,45.22
2019-03-03T22:57:13.298Z,45.56
2019-03-03T23:00:34.627Z,45.54
2019-03-03T23:05:50.051Z,45.74
2019-03-03T23:09:02.045Z,45.96
2019-03-03T23:12:01.303Z,46.16
2019-03-03T23:15:12.765Z,45.61
2019-03-03T23:18:22.959Z,45.68
2019-03-03T23:21:32.336Z,45.21
2019-03-03T23:24:42.891Z,45.02
2019-03-03T23:27:34.358Z,45.01
2019-03-03T23:30:08.907Z,45.21
2019-03-03T23:32:40.806Z,45.14
2019-03-03T23:35:50.190Z,45.08
2019-03-03T23:41:48.293Z,44.29
2019-03-03T23:44:31.732Z,44.32
2019-03-03T23:47:05.423Z,43.92
2019-03-03T23:49:59.401Z,43.97
2019-03-03T23:52:31.182Z,43.94
2019-03-03T23:58:22.582Z,43.65
